sensor_id;sensor_type;location;lat;lon;timestamp;pressure;altitude;pressure_sealevel;temperature;humidity
50380;BME280;37474;59.468;18.040;2023-03-26T00:02:11;99768.56;;;-3.23;100.00
50380;BME280;37474;59.468;18.040;2023-03-26T00:04:41;99769.28;;;-3.13;100.00
50380;BME280;37474;59.468;18.040;2023-03-26T00:07:09;99775.28;;;-3.19;100.00
50380;BME280;37474;59.468;18.040;2023-03-26T00:09:40;99769.34;;;-3.16;100.00
50380;BME280;37474;59.468;18.040;2023-03-26T00:12:11;99771.81;;;-3.11;100.00
50380;BME280;37474;59.468;18.040;2023-03-26T00:14:41;99762.50;;;-3.09;100.00
50380;BME280;37474;59.468;18.040;2023-03-26T00:17:09;99757.34;;;-3.02;100.00
50380;BME280;37474;59.468;18.040;2023-03-26T00:19:37;99764.22;;;-3.13;100.00
50380;BME280;37474;59.468;18.040;2023-03-26T00:22:10;99769.34;;;-3.17;100.00
50380;BME280;37474;59.468;18.040;2023-03-26T00:24:41;99760.13;;;-3.22;100.00
50380;BME280;37474;59.468;18.040;2023-03-26T00:27:14;99775.31;;;-3.23;100.00
50380;BME280;37474;59.468;18.040;2023-03-26T00:29:44;99779.47;;;-3.14;100.00
50380;BME280;37474;59.468;18.040;2023-03-26T00:32:13;99757.75;;;-3.37;100.00
50380;BME280;37474;59.468;18.040;2023-03-26T00:34:42;99774.41;;;-3.16;100.00
50380;BME280;37474;59.468;18.040;2023-03-26T00:37:15;99747.63;;;-3.38;100.00
50380;BME280;37474;59.468;18.040;2023-03-26T00:39:43;99777.75;;;-3.14;100.00
50380;BME280;37474;59.468;18.040;2023-03-26T00:42:19;99779.50;;;-3.16;100.00
50380;BME280;37474;59.468;18.040;2023-03-26T00:44:49;99777.78;;;-3.17;100.00
50380;BME280;37474;59.468;18.040;2023-03-26T00:47:22;99773.47;;;-3.09;100.00
50380;BME280;37474;59.468;18.040;2023-03-26T00:49:52;99775.22;;;-3.14;100.00
50380;BME280;37474;59.468;18.040;2023-03-26T00:52:20;99774.34;;;-3.10;100.00
50380;BME280;37474;59.468;18.040;2023-03-26T00:54:50;99767.59;;;-3.11;100.00
50380;BME280;37474;59.468;18.040;2023-03-26T00:57:21;99766.78;;;-3.14;100.00
50380;BME280;37474;59.468;18.040;2023-03-26T01:00:03;99723.91;;;-3.34;100.00
50380;BME280;37474;59.468;18.040;2023-03-26T01:02:43;99766.03;;;-3.21;100.00
50380;BME280;37474;59.468;18.040;2023-03-26T01:05:45;99764.19;;;-3.11;100.00
50380;BME280;37474;59.468;18.040;2023-03-26T01:08:32;99767.59;;;-3.11;100.00
50380;BME280;37474;59.468;18.040;2023-03-26T01:11:05;99769.22;;;-3.07;100.00
50380;BME280;37474;59.468;18.040;2023-03-26T01:13:46;99777.78;;;-3.17;100.00
50380;BME280;37474;59.468;18.040;2023-03-26T01:16:24;99776.94;;;-3.14;100.00
50380;BME280;37474;59.468;18.040;2023-03-26T01:18:53;99769.28;;;-3.13;100.00
50380;BME280;37474;59.468;18.040;2023-03-26T01:21:28;99779.53;;;-3.21;100.00
50380;BME280;37474;59.468;18.040;2023-03-26T01:23:59;99782.91;;;-3.20;100.00
50380;BME280;37474;59.468;18.040;2023-03-26T01:26:37;99779.41;;;-3.10;100.00
50380;BME280;37474;59.468;18.040;2023-03-26T01:29:18;99776.03;;;-3.09;100.00
50380;BME280;37474;59.468;18.040;2023-03-26T01:31:54;99780.28;;;-3.12;100.00
50380;BME280;37474;59.468;18.040;2023-03-26T01:34:29;99780.31;;;-3.14;100.00
50380;BME280;37474;59.468;18.040;2023-03-26T01:37:10;99780.31;;;-3.15;100.00
50380;BME280;37474;59.468;18.040;2023-03-26T01:39:49;99777.81;;;-3.19;100.00
50380;BME280;37474;59.468;18.040;2023-03-26T01:42:31;99777.75;;;-3.14;100.00
50380;BME280;37474;59.468;18.040;2023-03-26T01:45:06;99779.53;;;-3.22;100.00
50380;BME280;37474;59.468;18.040;2023-03-26T01:47:41;99779.53;;;-3.22;100.00
50380;BME280;37474;59.468;18.040;2023-03-26T01:50:09;99781.22;;;-3.21;100.00
50380;BME280;37474;59.468;18.040;2023-03-26T01:52:37;99776.97;;;-3.19;100.00
50380;BME280;37474;59.468;18.040;2023-03-26T01:55:11;99786.22;;;-3.15;100.00
50380;BME280;37474;59.468;18.040;2023-03-26T01:57:48;99789.59;;;-3.14;100.00
50380;BME280;37474;59.468;18.040;2023-03-26T02:00:24;99789.56;;;-3.11;100.00
50380;BME280;37474;59.468;18.040;2023-03-26T02:03:12;99782.03;;;-3.16;100.00
50380;BME280;37474;59.468;18.040;2023-03-26T02:05:48;99783.69;;;-3.15;100.00
50380;BME280;37474;59.468;18.040;2023-03-26T02:08:23;99783.56;;;-3.03;100.00
50380;BME280;37474;59.468;18.040;2023-03-26T02:11:05;99785.34;;;-3.12;100.00
50380;BME280;37474;59.468;18.040;2023-03-26T02:13:41;99783.69;;;-3.16;100.00
50380;BME280;37474;59.468;18.040;2023-03-26T02:16:12;99786.19;;;-3.10;100.00
50380;BME280;37474;59.468;18.040;2023-03-26T02:18:45;99784.44;;;-3.07;100.00
50380;BME280;37474;59.468;18.040;2023-03-26T02:21:20;99785.38;;;-3.14;100.00
50380;BME280;37474;59.468;18.040;2023-03-26T02:23:52;99733.22;;;-3.35;100.00
50380;BME280;37474;59.468;18.040;2023-03-26T02:26:26;99776.03;;;-3.09;100.00
50380;BME280;37474;59.468;18.040;2023-03-26T02:28:57;99772.72;;;-3.17;100.00
50380;BME280;37474;59.468;18.040;2023-03-26T02:31:25;99773.56;;;-3.16;100.00
50380;BME280;37474;59.468;18.040;2023-03-26T02:33:57;99778.56;;;-3.12;100.00
50380;BME280;37474;59.468;18.040;2023-03-26T02:36:25;99780.28;;;-3.12;100.00
50380;BME280;37474;59.468;18.040;2023-03-26T02:38:54;99788.69;;;-3.09;100.00
50380;BME280;37474;59.468;18.040;2023-03-26T02:41:28;99783.59;;;-3.04;100.00
50380;BME280;37474;59.468;18.040;2023-03-26T02:43:55;99783.66;;;-3.12;100.00
50380;BME280;37474;59.468;18.040;2023-03-26T02:46:23;99778.53;;;-3.07;100.00
50380;BME280;37474;59.468;18.040;2023-03-26T02:48:57;99778.50;;;-3.06;100.00
50380;BME280;37474;59.468;18.040;2023-03-26T02:51:25;99787.00;;;-3.11;100.00
50380;BME280;37474;59.468;18.040;2023-03-26T02:53:54;99792.06;;;-3.08;100.00
50380;BME280;37474;59.468;18.040;2023-03-26T02:56:27;99784.59;;;-3.22;100.00
50380;BME280;37474;59.468;18.040;2023-03-26T02:58:55;99789.50;;;-3.04;100.00
50380;BME280;37474;59.468;18.040;2023-03-26T03:01:23;99792.78;;;-2.97;100.00
50380;BME280;37474;59.468;18.040;2023-03-26T03:03:55;99797.03;;;-2.99;100.00
50380;BME280;37474;59.468;18.040;2023-03-26T03:06:28;99792.91;;;-3.08;100.00
50380;BME280;37474;59.468;18.040;2023-03-26T03:09:00;99794.50;;;-2.98;100.00
50380;BME280;37474;59.468;18.040;2023-03-26T03:11:34;99797.75;;;-2.86;100.00
50380;BME280;37474;59.468;18.040;2023-03-26T03:14:04;99801.31;;;-3.03;100.00
50380;BME280;37474;59.468;18.040;2023-03-26T03:16:32;99801.22;;;-2.97;100.00
50380;BME280;37474;59.468;18.040;2023-03-26T03:19:04;99801.13;;;-2.87;100.00
50380;BME280;37474;59.468;18.040;2023-03-26T03:21:32;99799.50;;;-2.93;100.00
50380;BME280;37474;59.468;18.040;2023-03-26T03:24:00;99803.03;;;-3.05;100.00
50380;BME280;37474;59.468;18.040;2023-03-26T03:26:33;99799.56;;;-3.01;100.00
50380;BME280;37474;59.468;18.040;2023-03-26T03:29:02;99797.75;;;-2.86;100.00
50380;BME280;37474;59.468;18.040;2023-03-26T03:31:30;99807.13;;;-2.95;100.00
50380;BME280;37474;59.468;18.040;2023-03-26T03:34:02;99804.56;;;-2.95;100.00
50380;BME280;37474;59.468;18.040;2023-03-26T03:36:31;99807.13;;;-2.96;100.00
50380;BME280;37474;59.468;18.040;2023-03-26T03:39:05;99804.56;;;-2.95;100.00
50380;BME280;37474;59.468;18.040;2023-03-26T03:41:37;99808.84;;;-2.97;100.00
50380;BME280;37474;59.468;18.040;2023-03-26T03:44:04;99808.84;;;-2.97;100.00
50380;BME280;37474;59.468;18.040;2023-03-26T03:46:35;99797.81;;;-2.93;100.00
50380;BME280;37474;59.468;18.040;2023-03-26T03:49:07;99806.22;;;-2.90;100.00
50380;BME280;37474;59.468;18.040;2023-03-26T03:51:35;99799.47;;;-2.92;100.00
50380;BME280;37474;59.468;18.040;2023-03-26T03:54:03;99802.88;;;-2.93;100.00
50380;BME280;37474;59.468;18.040;2023-03-26T03:56:34;99799.50;;;-2.95;100.00
50380;BME280;37474;59.468;18.040;2023-03-26T03:59:05;99792.69;;;-2.89;100.00
50380;BME280;37474;59.468;18.040;2023-03-26T04:01:34;99800.38;;;-2.94;100.00
50380;BME280;37474;59.468;18.040;2023-03-26T04:04:08;99798.66;;;-2.92;100.00
50380;BME280;37474;59.468;18.040;2023-03-26T04:06:36;99791.88;;;-2.92;100.00
50380;BME280;37474;59.468;18.040;2023-03-26T04:09:04;99788.53;;;-2.95;100.00
50380;BME280;37474;59.468;18.040;2023-03-26T04:11:36;99791.03;;;-2.92;100.00
50380;BME280;37474;59.468;18.040;2023-03-26T04:14:05;99807.97;;;-2.96;100.00
50380;BME280;37474;59.468;18.040;2023-03-26T04:16:33;99810.47;;;-2.91;100.00
50380;BME280;37474;59.468;18.040;2023-03-26T04:19:05;99801.09;;;-2.84;100.00
50380;BME280;37474;59.468;18.040;2023-03-26T04:21:35;99803.53;;;-2.78;100.00
50380;BME280;37474;59.468;18.040;2023-03-26T04:24:04;99809.50;;;-2.81;100.00
50380;BME280;37474;59.468;18.040;2023-03-26T04:26:34;99803.53;;;-2.75;100.00
50380;BME280;37474;59.468;18.040;2023-03-26T04:29:06;99805.25;;;-2.79;100.00
50380;BME280;37474;59.468;18.040;2023-03-26T04:31:39;99804.44;;;-2.81;100.00
50380;BME280;37474;59.468;18.040;2023-03-26T04:34:19;99803.56;;;-2.80;100.00
50380;BME280;37474;59.468;18.040;2023-03-26T04:36:50;99817.88;;;-2.74;100.00
50380;BME280;37474;59.468;18.040;2023-03-26T04:39:22;99815.31;;;-2.73;100.00
50380;BME280;37474;59.468;18.040;2023-03-26T04:41:54;99814.56;;;-2.79;100.00
50380;BME280;37474;59.468;18.040;2023-03-26T04:44:28;99816.19;;;-2.75;100.00
50380;BME280;37474;59.468;18.040;2023-03-26T04:46:57;99820.47;;;-2.77;100.00
50380;BME280;37474;59.468;18.040;2023-03-26T04:49:27;99820.47;;;-2.79;100.00
50380;BME280;37474;59.468;18.040;2023-03-26T04:51:56;99807.75;;;-2.76;100.00
50380;BME280;37474;59.468;18.040;2023-03-26T04:54:24;99820.22;;;-2.57;100.00
50380;BME280;37474;59.468;18.040;2023-03-26T04:56:56;99811.94;;;-2.72;100.00
50380;BME280;37474;59.468;18.040;2023-03-26T04:59:30;99816.97;;;-2.69;100.00
50380;BME280;37474;59.468;18.040;2023-03-26T05:02:04;99808.53;;;-2.72;100.00
50380;BME280;37474;59.468;18.040;2023-03-26T05:04:35;99810.06;;;-2.57;100.00
50380;BME280;37474;59.468;18.040;2023-03-26T05:07:09;99815.25;;;-2.65;100.00
50380;BME280;37474;59.468;18.040;2023-03-26T05:09:42;99817.50;;;-2.45;100.00
50380;BME280;37474;59.468;18.040;2023-03-26T05:12:12;99816.03;;;-2.60;100.00
50380;BME280;37474;59.468;18.040;2023-03-26T05:14:41;99817.69;;;-2.59;100.00
50380;BME280;37474;59.468;18.040;2023-03-26T05:17:13;99814.34;;;-2.61;100.00
50380;BME280;37474;59.468;18.040;2023-03-26T05:19:46;99817.69;;;-2.59;100.00
50380;BME280;37474;59.468;18.040;2023-03-26T05:22:16;99810.00;;;-2.53;100.00
50380;BME280;37474;59.468;18.040;2023-03-26T05:24:43;99815.09;;;-2.54;100.00
50380;BME280;37474;59.468;18.040;2023-03-26T05:27:13;99771.41;;;-2.78;100.00
50380;BME280;37474;59.468;18.040;2023-03-26T05:29:45;99820.84;;;-2.42;100.00
50380;BME280;37474;59.468;18.040;2023-03-26T05:32:13;99820.03;;;-2.45;100.00
50380;BME280;37474;59.468;18.040;2023-03-26T05:34:43;99813.25;;;-2.42;100.00
50380;BME280;37474;59.468;18.040;2023-03-26T05:37:12;99824.19;;;-2.36;100.00
50380;BME280;37474;59.468;18.040;2023-03-26T05:39:40;99829.16;;;-2.30;100.00
50380;BME280;37474;59.468;18.040;2023-03-26T05:42:11;99822.59;;;-2.44;100.00
50380;BME280;37474;59.468;18.040;2023-03-26T05:44:40;99832.66;;;-2.39;100.00
50380;BME280;37474;59.468;18.040;2023-03-26T05:47:10;99830.22;;;-2.47;100.00
50380;BME280;37474;59.468;18.040;2023-03-26T05:49:40;99783.97;;;-2.67;100.00
50380;BME280;37474;59.468;18.040;2023-03-26T05:52:09;99834.47;;;-2.47;100.00
50380;BME280;37474;59.468;18.040;2023-03-26T05:54:42;99834.34;;;-2.40;100.00
50380;BME280;37474;59.468;18.040;2023-03-26T05:57:10;99838.66;;;-2.43;100.00
50380;BME280;37474;59.468;18.040;2023-03-26T05:59:40;99835.84;;;-2.23;100.00
50380;BME280;37474;59.468;18.040;2023-03-26T06:02:11;99831.59;;;-2.23;100.00
50380;BME280;37474;59.468;18.040;2023-03-26T06:04:39;99832.44;;;-2.21;100.00
50380;BME280;37474;59.468;18.040;2023-03-26T06:07:10;99824.00;;;-2.24;100.00
50380;BME280;37474;59.468;18.040;2023-03-26T06:09:39;99828.22;;;-2.22;100.00
50380;BME280;37474;59.468;18.040;2023-03-26T06:12:08;99831.63;;;-2.24;100.00
50380;BME280;37474;59.468;18.040;2023-03-26T06:14:41;99822.22;;;-2.16;100.00
50380;BME280;37474;59.468;18.040;2023-03-26T06:17:09;99832.13;;;-1.99;100.00
50380;BME280;37474;59.468;18.040;2023-03-26T06:19:38;99825.56;;;-2.14;100.00
50380;BME280;37474;59.468;18.040;2023-03-26T06:22:12;99822.91;;;-2.06;100.00
50380;BME280;37474;59.468;18.040;2023-03-26T06:24:40;99822.91;;;-2.05;100.00
50380;BME280;37474;59.468;18.040;2023-03-26T06:27:07;99819.56;;;-2.08;100.00
50380;BME280;37474;59.468;18.040;2023-03-26T06:29:39;99829.56;;;-1.98;100.00
50380;BME280;37474;59.468;18.040;2023-03-26T06:32:07;99812.66;;;-2.02;100.00
50380;BME280;37474;59.468;18.040;2023-03-26T06:34:47;99832.22;;;-2.05;100.00
50380;BME280;37474;59.468;18.040;2023-03-26T06:37:17;99833.78;;;-1.98;100.00
50380;BME280;37474;59.468;18.040;2023-03-26T06:39:44;99834.81;;;-2.10;100.00
50380;BME280;37474;59.468;18.040;2023-03-26T06:42:12;99829.81;;;-2.18;100.00
50380;BME280;37474;59.468;18.040;2023-03-26T06:44:44;99843.31;;;-2.13;100.00
50380;BME280;37474;59.468;18.040;2023-03-26T06:47:12;99837.44;;;-2.18;100.00
50380;BME280;37474;59.468;18.040;2023-03-26T06:49:40;99844.78;;;-1.98;100.00
50380;BME280;37474;59.468;18.040;2023-03-26T06:52:14;99844.03;;;-2.03;100.00
50380;BME280;37474;59.468;18.040;2023-03-26T06:54:41;99844.97;;;-2.10;100.00
50380;BME280;37474;59.468;18.040;2023-03-26T06:57:09;99847.31;;;-1.96;100.00
50380;BME280;37474;59.468;18.040;2023-03-26T06:59:39;99850.94;;;-2.14;100.00
50380;BME280;37474;59.468;18.040;2023-03-26T07:02:09;99855.66;;;-1.88;100.00
50380;BME280;37474;59.468;18.040;2023-03-26T07:04:37;99850.66;;;-1.93;100.00
50380;BME280;37474;59.468;18.040;2023-03-26T07:07:07;99863.19;;;-1.83;100.00
50380;BME280;37474;59.468;18.040;2023-03-26T07:09:38;99858.94;;;-1.81;100.00
50380;BME280;37474;59.468;18.040;2023-03-26T07:12:06;99858.22;;;-1.88;100.00
50380;BME280;37474;59.468;18.040;2023-03-26T07:14:36;99857.53;;;-2.01;100.00
50380;BME280;37474;59.468;18.040;2023-03-26T07:17:06;99862.41;;;-1.87;100.00
50380;BME280;37474;59.468;18.040;2023-03-26T07:19:33;99829.59;;;-1.99;100.00
50380;BME280;37474;59.468;18.040;2023-03-26T07:22:02;99861.09;;;-1.57;100.00
50380;BME280;37474;59.468;18.040;2023-03-26T07:24:30;99854.56;;;-1.72;100.00
50380;BME280;37474;59.468;18.040;2023-03-26T07:27:02;99852.09;;;-1.78;100.00
50380;BME280;37474;59.468;18.040;2023-03-26T07:29:42;99856.34;;;-1.78;100.00
50380;BME280;37474;59.468;18.040;2023-03-26T07:32:16;99858.56;;;-1.55;100.00
50380;BME280;37474;59.468;18.040;2023-03-26T07:34:53;99861.50;;;-1.81;100.00
50380;BME280;37474;59.468;18.040;2023-03-26T07:37:37;99864.75;;;-1.73;100.00
50380;BME280;37474;59.468;18.040;2023-03-26T07:40:18;99869.53;;;-1.53;100.00
50380;BME280;37474;59.468;18.040;2023-03-26T07:42:56;99873.78;;;-1.54;100.00
50380;BME280;37474;59.468;18.040;2023-03-26T07:45:35;99864.25;;;-1.41;100.00
50380;BME280;37474;59.468;18.040;2023-03-26T07:48:09;99863.81;;;-1.17;98.71
50380;BME280;37474;59.468;18.040;2023-03-26T07:50:40;99870.06;;;-1.33;100.00
50380;BME280;37474;59.468;18.040;2023-03-26T07:53:08;99868.38;;;-1.36;98.84
50380;BME280;37474;59.468;18.040;2023-03-26T07:55:45;99875.03;;;-1.28;98.56
50380;BME280;37474;59.468;18.040;2023-03-26T07:58:31;99863.09;;;-1.23;98.28
50380;BME280;37474;59.468;18.040;2023-03-26T08:01:07;99867.59;;;-0.91;97.96
50380;BME280;37474;59.468;18.040;2023-03-26T08:03:55;99863.00;;;-0.72;95.18
50380;BME280;37474;59.468;18.040;2023-03-26T08:06:50;99833.88;;;-0.58;94.60
50380;BME280;37474;59.468;18.040;2023-03-26T08:09:24;99834.28;;;-0.79;95.97
50380;BME280;37474;59.468;18.040;2023-03-26T08:11:57;99871.31;;;-0.63;93.84
50380;BME280;37474;59.468;18.040;2023-03-26T08:14:47;99869.38;;;-0.51;92.95
50380;BME280;37474;59.468;18.040;2023-03-26T08:17:24;99873.16;;;-0.28;91.99
50380;BME280;37474;59.468;18.040;2023-03-26T08:20:03;99837.78;;;-0.83;94.04
50380;BME280;37474;59.468;18.040;2023-03-26T08:22:37;99882.28;;;-0.59;93.61
50380;BME280;37474;59.468;18.040;2023-03-26T08:25:22;99872.88;;;-0.57;93.01
50380;BME280;37474;59.468;18.040;2023-03-26T08:28:04;99881.75;;;-0.78;95.11
50380;BME280;37474;59.468;18.040;2023-03-26T08:30:41;99877.34;;;-0.68;95.43
50380;BME280;37474;59.468;18.040;2023-03-26T08:33:13;99882.72;;;-0.40;94.40
50380;BME280;37474;59.468;18.040;2023-03-26T08:35:46;99884.78;;;-0.58;93.85
50380;BME280;37474;59.468;18.040;2023-03-26T08:38:17;99882.22;;;-1.02;97.10
50380;BME280;37474;59.468;18.040;2023-03-26T08:41:10;99883.72;;;-0.91;97.30
50380;BME280;37474;59.468;18.040;2023-03-26T08:44:09;99883.06;;;-0.57;96.25
50380;BME280;37474;59.468;18.040;2023-03-26T08:47:08;99881.16;;;-0.91;97.23
50380;BME280;37474;59.468;18.040;2023-03-26T08:50:02;99880.09;;;-0.77;97.28
50380;BME280;37474;59.468;18.040;2023-03-26T08:55:42;99898.78;;;-1.29;99.13
50380;BME280;37474;59.468;18.040;2023-03-26T08:58:38;99890.19;;;-1.21;100.00
50380;BME280;37474;59.468;18.040;2023-03-26T09:01:34;99903.63;;;-1.14;100.00
50380;BME280;37474;59.468;18.040;2023-03-26T09:04:24;99890.34;;;-1.31;100.00
50380;BME280;37474;59.468;18.040;2023-03-26T09:10:15;99890.69;;;-1.02;100.00
50380;BME280;37474;59.468;18.040;2023-03-26T09:13:08;99888.63;;;-0.82;99.72
50380;BME280;37474;59.468;18.040;2023-03-26T09:19:01;99881.63;;;-0.70;98.72
50380;BME280;37474;59.468;18.040;2023-03-26T09:21:56;99881.53;;;-0.64;98.52
50380;BME280;37474;59.468;18.040;2023-03-26T09:24:48;99883.59;;;-0.83;100.00
50380;BME280;37474;59.468;18.040;2023-03-26T09:27:35;99880.47;;;-0.99;100.00
50380;BME280;37474;59.468;18.040;2023-03-26T09:30:38;99886.22;;;-0.89;100.00
50380;BME280;37474;59.468;18.040;2023-03-26T09:36:28;99894.25;;;-1.12;100.00
50380;BME280;37474;59.468;18.040;2023-03-26T09:39:08;99888.69;;;-0.85;100.00
50380;BME280;37474;59.468;18.040;2023-03-26T09:41:43;99895.13;;;-0.65;100.00
50380;BME280;37474;59.468;18.040;2023-03-26T09:50:38;99891.69;;;-0.64;99.46
50380;BME280;37474;59.468;18.040;2023-03-26T09:53:37;99892.91;;;-0.84;100.00
50380;BME280;37474;59.468;18.040;2023-03-26T09:56:14;99898.19;;;-0.93;100.00
50380;BME280;37474;59.468;18.040;2023-03-26T09:59:10;99906.59;;;-0.91;100.00
50380;BME280;37474;59.468;18.040;2023-03-26T10:01:46;99879.59;;;-0.98;100.00
50380;BME280;37474;59.468;18.040;2023-03-26T10:04:44;99902.81;;;-0.68;100.00
50380;BME280;37474;59.468;18.040;2023-03-26T10:07:40;99907.56;;;-0.50;99.93
50380;BME280;37474;59.468;18.040;2023-03-26T10:10:17;99904.03;;;-0.43;100.00
50380;BME280;37474;59.468;18.040;2023-03-26T10:12:57;99898.94;;;-0.43;99.91
50380;BME280;37474;59.468;18.040;2023-03-26T10:15:54;99899.63;;;-0.36;98.21
50380;BME280;37474;59.468;18.040;2023-03-26T10:18:34;99899.06;;;-0.49;98.60
50380;BME280;37474;59.468;18.040;2023-03-26T10:21:15;99902.56;;;-0.56;99.05
50380;BME280;37474;59.468;18.040;2023-03-26T10:24:07;99903.56;;;-0.63;99.07
50380;BME280;37474;59.468;18.040;2023-03-26T10:27:07;99906.69;;;-0.49;99.40
50380;BME280;37474;59.468;18.040;2023-03-26T10:32:50;99909.53;;;-0.21;96.58
50380;BME280;37474;59.468;18.040;2023-03-26T10:35:29;99909.25;;;-0.09;95.17
50380;BME280;37474;59.468;18.040;2023-03-26T10:38:13;99910.75;;;-0.39;92.86
50380;BME280;37474;59.468;18.040;2023-03-26T10:40:50;99915.00;;;-0.41;94.50
50380;BME280;37474;59.468;18.040;2023-03-26T10:47:01;99909.44;;;-0.18;95.42
50380;BME280;37474;59.468;18.040;2023-03-26T10:49:43;99907.97;;;0.11;93.08
50380;BME280;37474;59.468;18.040;2023-03-26T10:52:17;99914.22;;;-0.03;93.44
50380;BME280;37474;59.468;18.040;2023-03-26T10:54:54;99912.91;;;-0.20;91.83
50380;BME280;37474;59.468;18.040;2023-03-26T10:57:34;99876.25;;;-0.55;88.96
50380;BME280;37474;59.468;18.040;2023-03-26T11:00:16;99921.63;;;0.08;88.31
50380;BME280;37474;59.468;18.040;2023-03-26T11:05:52;99865.75;;;-0.40;86.98
50380;BME280;37474;59.468;18.040;2023-03-26T11:08:30;99916.22;;;0.22;85.92
50380;BME280;37474;59.468;18.040;2023-03-26T11:11:10;99919.28;;;0.01;88.66
50380;BME280;37474;59.468;18.040;2023-03-26T11:13:45;99914.56;;;0.21;83.64
50380;BME280;37474;59.468;18.040;2023-03-26T11:16:20;99915.38;;;0.23;83.04
50380;BME280;37474;59.468;18.040;2023-03-26T11:18:56;99913.38;;;-0.03;86.38
50380;BME280;37474;59.468;18.040;2023-03-26T11:21:31;99911.41;;;0.11;86.03
50380;BME280;37474;59.468;18.040;2023-03-26T11:24:17;99910.16;;;-0.11;86.95
50380;BME280;37474;59.468;18.040;2023-03-26T11:26:53;99926.53;;;-0.23;85.85
50380;BME280;37474;59.468;18.040;2023-03-26T11:29:46;99899.56;;;-0.76;85.74
50380;BME280;37474;59.468;18.040;2023-03-26T11:32:21;99918.41;;;-0.42;86.74
50380;BME280;37474;59.468;18.040;2023-03-26T11:34:57;99920.94;;;-0.40;86.12
50380;BME280;37474;59.468;18.040;2023-03-26T11:37:32;99924.41;;;-0.03;83.24
50380;BME280;37474;59.468;18.040;2023-03-26T11:40:03;99926.13;;;0.36;83.06
50380;BME280;37474;59.468;18.040;2023-03-26T11:42:37;99928.41;;;0.48;80.02
50380;BME280;37474;59.468;18.040;2023-03-26T11:45:13;99931.97;;;0.41;79.08
50380;BME280;37474;59.468;18.040;2023-03-26T11:47:46;99884.78;;;0.23;79.95
50380;BME280;37474;59.468;18.040;2023-03-26T11:50:21;99931.03;;;0.43;77.06
50380;BME280;37474;59.468;18.040;2023-03-26T11:52:52;99931.09;;;0.42;80.38
50380;BME280;37474;59.468;18.040;2023-03-26T11:55:26;99931.75;;;0.50;78.89
50380;BME280;37474;59.468;18.040;2023-03-26T11:57:58;99922.06;;;0.64;77.77
50380;BME280;37474;59.468;18.040;2023-03-26T12:00:29;99934.03;;;0.62;76.25
50380;BME280;37474;59.468;18.040;2023-03-26T12:02:59;99882.00;;;0.34;75.44
50380;BME280;37474;59.468;18.040;2023-03-26T12:05:28;99927.34;;;0.57;76.44
50380;BME280;37474;59.468;18.040;2023-03-26T12:08:08;99928.78;;;1.02;74.38
50380;BME280;37474;59.468;18.040;2023-03-26T12:10:50;99927.56;;;1.17;73.17
50380;BME280;37474;59.468;18.040;2023-03-26T12:13:28;99928.69;;;1.40;72.23
50380;BME280;37474;59.468;18.040;2023-03-26T12:16:07;99920.31;;;1.35;71.21
50380;BME280;37474;59.468;18.040;2023-03-26T12:18:36;99927.41;;;1.23;72.89
50380;BME280;37474;59.468;18.040;2023-03-26T12:21:10;99927.59;;;0.82;73.07
50380;BME280;37474;59.468;18.040;2023-03-26T12:23:54;99923.22;;;0.87;76.41
50380;BME280;37474;59.468;18.040;2023-03-26T12:26:36;99928.31;;;0.87;74.73
50380;BME280;37474;59.468;18.040;2023-03-26T12:29:10;99928.94;;;0.62;77.61
50380;BME280;37474;59.468;18.040;2023-03-26T12:31:41;99938.78;;;0.40;79.13
50380;BME280;37474;59.468;18.040;2023-03-26T12:34:16;99925.66;;;0.57;79.04
50380;BME280;37474;59.468;18.040;2023-03-26T12:36:54;99937.03;;;0.42;75.42
50380;BME280;37474;59.468;18.040;2023-03-26T12:39:29;99942.72;;;0.15;76.99
50380;BME280;37474;59.468;18.040;2023-03-26T12:42:27;99939.97;;;0.63;76.81
50380;BME280;37474;59.468;18.040;2023-03-26T12:45:15;99935.56;;;1.03;72.72
50380;BME280;37474;59.468;18.040;2023-03-26T12:47:48;99943.03;;;1.11;72.57
50380;BME280;37474;59.468;18.040;2023-03-26T12:50:36;99939.84;;;1.03;73.55
50380;BME280;37474;59.468;18.040;2023-03-26T12:53:31;99929.84;;;0.94;75.01
50380;BME280;37474;59.468;18.040;2023-03-26T12:56:11;99946.69;;;0.65;75.57
50380;BME280;37474;59.468;18.040;2023-03-26T12:59:01;99944.50;;;0.50;77.75
50380;BME280;37474;59.468;18.040;2023-03-26T13:01:39;99934.47;;;0.42;79.57
50380;BME280;37474;59.468;18.040;2023-03-26T13:04:34;99939.88;;;0.67;79.57
50380;BME280;37474;59.468;18.040;2023-03-26T13:07:08;99936.38;;;0.70;77.53
50380;BME280;37474;59.468;18.040;2023-03-26T13:09:49;99938.06;;;0.71;76.61
50380;BME280;37474;59.468;18.040;2023-03-26T13:12:29;99939.00;;;1.02;76.72
50380;BME280;37474;59.468;18.040;2023-03-26T13:15:22;99942.91;;;0.82;74.83
50380;BME280;37474;59.468;18.040;2023-03-26T13:18:02;99910.78;;;0.37;74.35
50380;BME280;37474;59.468;18.040;2023-03-26T13:20:46;99930.06;;;0.50;73.03
50380;BME280;37474;59.468;18.040;2023-03-26T13:23:29;99937.56;;;0.55;74.43
50380;BME280;37474;59.468;18.040;2023-03-26T13:26:09;99941.59;;;0.65;74.71
50380;BME280;37474;59.468;18.040;2023-03-26T13:28:45;99947.28;;;0.76;75.26
50380;BME280;37474;59.468;18.040;2023-03-26T13:34:50;99944.16;;;1.65;68.94
50380;BME280;37474;59.468;18.040;2023-03-26T13:37:25;99949.44;;;1.90;70.08
50380;BME280;37474;59.468;18.040;2023-03-26T13:40:02;99943.63;;;1.53;71.99
50380;BME280;37474;59.468;18.040;2023-03-26T13:42:53;99876.94;;;2.20;66.69
50380;BME280;37474;59.468;18.040;2023-03-26T13:45:41;99910.69;;;2.31;67.43
50380;BME280;37474;59.468;18.040;2023-03-26T13:48:16;99901.53;;;1.67;66.80
50380;BME280;37474;59.468;18.040;2023-03-26T13:50:56;99939.34;;;2.43;65.46
50380;BME280;37474;59.468;18.040;2023-03-26T13:53:33;99947.81;;;2.73;63.28
50380;BME280;37474;59.468;18.040;2023-03-26T13:56:05;99952.75;;;2.77;62.01
50380;BME280;37474;59.468;18.040;2023-03-26T13:58:42;99945.97;;;2.20;64.72
50380;BME280;37474;59.468;18.040;2023-03-26T14:01:14;99951.28;;;2.14;65.12